createdAt,value
2023-02-15T00:01:38.566Z,11.00
2023-02-15T00:04:06.532Z,11.25
2023-02-15T00:06:34.521Z,13.75
2023-02-15T00:09:02.471Z,10.75
2023-02-15T00:11:43.717Z,13.00
2023-02-15T00:14:13.983Z,13.75
2023-02-15T00:16:42.278Z,12.75
2023-02-15T00:19:10.400Z,12.25
2023-02-15T00:21:38.915Z,12.00
2023-02-15T00:24:08.311Z,11.25
2023-02-15T00:26:36.214Z,13.00
2023-02-15T00:29:04.374Z,11.75
2023-02-15T00:31:34.182Z,11.50
2023-02-15T00:34:04.069Z,12.50
2023-02-15T00:36:32.000Z,12.00
2023-02-15T00:38:59.949Z,11.50
2023-02-15T00:41:28.113Z,11.25
2023-02-15T00:43:56.051Z,12.25
2023-02-15T00:46:23.988Z,11.25
2023-02-15T00:48:53.452Z,10.75
2023-02-15T00:51:22.356Z,11.00
2023-02-15T00:53:50.300Z,11.50
2023-02-15T00:56:18.258Z,12.50
2023-02-15T00:58:46.255Z,13.00
2023-02-15T01:01:14.895Z,12.25
2023-02-15T01:03:43.578Z,11.00
2023-02-15T01:06:12.970Z,13.00
2023-02-15T01:08:40.875Z,11.00
2023-02-15T01:11:09.239Z,11.25
2023-02-15T01:13:37.204Z,11.00
2023-02-15T01:16:05.958Z,10.00
2023-02-15T01:18:34.085Z,11.00
2023-02-15T01:21:02.060Z,11.25
2023-02-15T01:23:31.586Z,11.75
2023-02-15T01:26:04.107Z,11.00
2023-02-15T01:28:32.201Z,12.00
2023-02-15T01:31:00.535Z,11.25
2023-02-15T01:33:28.752Z,11.00
2023-02-15T01:35:59.495Z,12.25
2023-02-15T01:38:27.604Z,12.00
2023-02-15T01:41:18.168Z,11.75
2023-02-15T01:43:47.325Z,11.50
2023-02-15T01:46:15.490Z,11.25
2023-02-15T01:48:46.034Z,11.00
2023-02-15T01:51:14.002Z,11.75
2023-02-15T01:53:43.951Z,9.00
2023-02-15T01:56:14.927Z,11.75
2023-02-15T01:58:42.820Z,11.25
2023-02-15T02:01:10.781Z,11.50
2023-02-15T02:03:43.387Z,11.00
2023-02-15T02:06:11.739Z,11.00
2023-02-15T02:08:39.772Z,11.00
2023-02-15T02:11:14.069Z,10.50
2023-02-15T02:13:42.017Z,12.50
2023-02-15T02:16:12.406Z,10.75
2023-02-15T02:18:46.559Z,12.00
2023-02-15T02:21:33.195Z,9.50
2023-02-15T02:24:22.275Z,11.00
2023-02-15T02:27:26.317Z,12.75
2023-02-15T02:30:29.640Z,9.50
2023-02-15T02:33:16.537Z,9.00
2023-02-15T02:35:47.697Z,10.75
2023-02-15T02:38:19.603Z,11.50
2023-02-15T02:40:53.925Z,11.00
2023-02-15T02:43:23.370Z,10.00
2023-02-15T02:45:53.426Z,11.75
2023-02-15T02:48:24.017Z,10.00
2023-02-15T02:50:51.918Z,11.00
2023-02-15T02:53:20.195Z,9.25
2023-02-15T02:55:49.215Z,10.75
2023-02-15T02:58:19.041Z,10.25
2023-02-15T03:00:47.792Z,12.25
2023-02-15T03:03:16.769Z,12.00
2023-02-15T03:05:46.901Z,11.00
2023-02-15T03:08:22.650Z,12.75
2023-02-15T03:10:50.747Z,11.00
2023-02-15T03:13:19.124Z,11.50
2023-02-15T03:16:04.301Z,11.25
2023-02-15T03:18:33.267Z,12.00
2023-02-15T03:21:02.608Z,12.00
2023-02-15T03:23:30.767Z,9.25
2023-02-15T03:25:59.995Z,10.25
2023-02-15T03:28:29.726Z,11.00
2023-02-15T03:30:58.512Z,9.00
2023-02-15T03:33:26.764Z,10.00
2023-02-15T03:35:57.918Z,10.50
2023-02-15T03:38:29.046Z,11.00
2023-02-15T03:41:12.332Z,10.75
2023-02-15T03:43:44.112Z,10.50
2023-02-15T03:46:14.886Z,11.25
2023-02-15T03:48:44.589Z,9.75
2023-02-15T03:51:35.881Z,11.50
2023-02-15T03:54:06.828Z,10.25
2023-02-15T03:56:35.794Z,11.00
2023-02-15T03:59:22.353Z,11.00
2023-02-15T04:01:59.366Z,11.00
2023-02-15T04:04:37.421Z,10.00
2023-02-15T04:07:06.708Z,11.00
2023-02-15T04:09:53.712Z,11.50
2023-02-15T04:12:21.608Z,10.75
2023-02-15T04:15:08.620Z,10.25
2023-02-15T04:17:38.142Z,10.50
2023-02-15T04:20:24.769Z,11.25
2023-02-15T04:23:10.002Z,11.00
2023-02-15T04:25:39.406Z,11.00
2023-02-15T04:28:08.596Z,10.00
2023-02-15T04:30:36.619Z,10.00
2023-02-15T04:33:04.870Z,10.75
2023-02-15T04:35:34.464Z,12.00
2023-02-15T04:38:02.431Z,10.00
2023-02-15T04:40:30.333Z,11.00
2023-02-15T04:42:59.632Z,11.50
2023-02-15T04:45:28.140Z,11.00
2023-02-15T04:47:56.182Z,11.00
2023-02-15T04:50:24.191Z,10.75
2023-02-15T04:52:52.424Z,12.00
2023-02-15T04:55:20.327Z,12.00
2023-02-15T04:57:48.377Z,11.00
2023-02-15T05:00:18.359Z,11.75
2023-02-15T05:02:46.580Z,9.25
2023-02-15T05:05:16.164Z,11.75
2023-02-15T05:07:44.060Z,9.75
2023-02-15T05:10:12.036Z,10.75
2023-02-15T05:12:40.272Z,9.75
2023-02-15T05:15:10.750Z,10.00
2023-02-15T05:17:41.074Z,11.50
2023-02-15T05:20:09.587Z,10.00
2023-02-15T05:22:37.829Z,10.25
2023-02-15T05:25:23.527Z,9.25
2023-02-15T05:28:08.589Z,10.75
2023-02-15T05:30:37.005Z,10.25
2023-02-15T05:33:06.733Z,11.75
2023-02-15T05:35:34.728Z,12.75
2023-02-15T05:38:02.567Z,11.50
2023-02-15T05:40:30.462Z,11.00
2023-02-15T05:42:58.815Z,12.00
2023-02-15T05:45:26.873Z,11.75
2023-02-15T05:47:54.778Z,13.75
2023-02-15T05:50:24.077Z,12.00
2023-02-15T05:52:53.418Z,11.25
2023-02-15T05:55:21.321Z,12.50
2023-02-15T05:57:49.242Z,11.00
2023-02-15T06:00:17.874Z,12.00
2023-02-15T06:02:46.118Z,11.00
2023-02-15T06:05:14.124Z,13.25
2023-02-15T06:07:44.819Z,12.25
2023-02-15T06:10:12.782Z,11.00
2023-02-15T06:12:41.049Z,13.50
2023-02-15T06:15:12.182Z,12.00
2023-02-15T06:17:40.080Z,9.75
2023-02-15T06:20:09.339Z,10.75
2023-02-15T06:22:37.607Z,13.25
2023-02-15T06:25:10.849Z,12.00
2023-02-15T06:27:38.798Z,12.75
2023-02-15T06:30:14.339Z,12.00
2023-02-15T06:32:42.672Z,11.00
2023-02-15T06:35:10.646Z,11.25
2023-02-15T06:37:38.595Z,11.25
2023-02-15T06:40:09.511Z,10.75
2023-02-15T06:42:37.774Z,9.75
2023-02-15T06:45:08.606Z,11.50
2023-02-15T06:47:36.660Z,9.75
2023-02-15T06:50:05.053Z,12.00
2023-02-15T06:52:33.438Z,9.75
2023-02-15T06:55:01.351Z,10.00
2023-02-15T06:57:31.017Z,10.00
2023-02-15T06:59:59.408Z,10.75
2023-02-15T07:02:27.704Z,11.50
2023-02-15T07:04:55.726Z,11.00
2023-02-15T07:07:23.716Z,8.75
2023-02-15T07:09:51.678Z,11.00
2023-02-15T07:12:37.245Z,10.75
2023-02-15T07:15:10.116Z,10.00
2023-02-15T07:17:38.272Z,12.00
2023-02-15T07:20:08.752Z,10.00
2023-02-15T07:22:37.244Z,10.25
2023-02-15T07:25:05.333Z,9.00
2023-02-15T07:27:33.440Z,9.00
2023-02-15T07:30:01.418Z,11.50
2023-02-15T07:32:31.717Z,9.75
2023-02-15T07:34:59.714Z,10.00
2023-02-15T07:37:27.887Z,12.00
2023-02-15T07:39:55.774Z,10.00
2023-02-15T07:42:24.062Z,10.50
2023-02-15T07:44:53.686Z,10.50
2023-02-15T07:47:21.647Z,11.00
2023-02-15T07:49:52.214Z,11.75
2023-02-15T07:52:20.379Z,8.50
2023-02-15T07:54:48.338Z,10.25
2023-02-15T07:57:16.399Z,10.00
2023-02-15T07:59:44.636Z,10.00
2023-02-15T08:02:12.858Z,9.25
2023-02-15T08:04:41.103Z,8.75
2023-02-15T08:07:10.359Z,10.75
2023-02-15T08:09:38.263Z,10.00
2023-02-15T08:12:06.713Z,11.50
2023-02-15T08:14:34.845Z,9.00
2023-02-15T08:17:05.957Z,10.00
2023-02-15T08:19:35.457Z,8.75
2023-02-15T08:22:05.022Z,9.75
2023-02-15T08:24:35.326Z,9.50
2023-02-15T08:27:06.159Z,11.00
2023-02-15T08:29:34.640Z,10.00
2023-02-15T08:32:03.949Z,11.00
2023-02-15T08:34:32.437Z,8.75
2023-02-15T08:37:00.405Z,10.00
2023-02-15T08:39:28.445Z,9.00
2023-02-15T08:41:58.082Z,8.75
2023-02-15T08:44:26.146Z,10.00
2023-02-15T08:46:54.080Z,8.00
2023-02-15T08:49:22.926Z,8.25
2023-02-15T08:51:51.312Z,9.00
2023-02-15T08:54:20.224Z,9.75
2023-02-15T08:56:48.171Z,8.50
2023-02-15T08:59:18.137Z,10.50
2023-02-15T09:01:46.624Z,9.00
2023-02-15T09:04:16.560Z,10.00
2023-02-15T09:06:47.642Z,9.00
2023-02-15T09:09:16.218Z,8.50
2023-02-15T09:11:45.442Z,9.25
2023-02-15T09:14:15.427Z,8.00
2023-02-15T09:16:47.210Z,9.00
2023-02-15T09:19:15.253Z,9.75
2023-02-15T09:21:43.591Z,10.00
2023-02-15T09:24:12.545Z,8.25
2023-02-15T09:26:41.787Z,9.00
2023-02-15T09:29:09.950Z,8.25
2023-02-15T09:31:42.254Z,9.00
2023-02-15T09:34:11.636Z,9.75
2023-02-15T09:36:40.951Z,8.50
2023-02-15T09:39:10.372Z,9.50
2023-02-15T09:42:20.226Z,7.75
2023-02-15T09:45:39.460Z,7.00
2023-02-15T09:48:24.156Z,8.75
2023-02-15T09:50:59.731Z,8.75
2023-02-15T09:53:44.749Z,9.00
2023-02-15T09:56:17.209Z,8.75
2023-02-15T09:58:49.627Z,8.00
2023-02-15T10:01:21.054Z,9.25
2023-02-15T10:03:57.457Z,8.25
2023-02-15T10:06:45.346Z,7.75
2023-02-15T10:09:52.015Z,8.00
2023-02-15T10:12:31.187Z,7.75
2023-02-15T10:15:20.345Z,9.25
2023-02-15T10:17:57.464Z,7.25
2023-02-15T10:20:29.016Z,7.75
2023-02-15T10:23:15.852Z,9.00
2023-02-15T10:25:46.504Z,9.25
2023-02-15T10:28:18.639Z,9.00
2023-02-15T10:30:49.061Z,9.00
2023-02-15T10:33:25.838Z,7.75
2023-02-15T10:35:57.972Z,9.00
2023-02-15T10:38:30.340Z,10.00
2023-02-15T10:41:06.655Z,7.75
2023-02-15T10:43:45.176Z,8.00
2023-02-15T10:46:16.745Z,8.00
2023-02-15T10:48:57.724Z,8.75
2023-02-15T10:51:28.968Z,9.75
2023-02-15T10:54:07.452Z,8.00
2023-02-15T10:56:37.754Z,8.25
2023-02-15T10:59:21.205Z,8.00
2023-02-15T11:01:51.323Z,7.25
2023-02-15T11:04:53.614Z,8.50
2023-02-15T11:07:23.446Z,8.00
2023-02-15T11:09:54.418Z,7.00
2023-02-15T11:12:24.560Z,7.75
2023-02-15T11:14:55.223Z,8.25
2023-02-15T11:17:24.596Z,9.00
2023-02-15T11:19:58.144Z,7.25
2023-02-15T11:22:26.106Z,8.50
2023-02-15T11:24:55.760Z,8.75
2023-02-15T11:27:24.441Z,7.75
2023-02-15T11:29:59.627Z,7.00
2023-02-15T11:32:29.828Z,9.50
2023-02-15T11:35:00.570Z,7.50
2023-02-15T11:37:31.395Z,7.75
2023-02-15T11:40:01.673Z,7.25
2023-02-15T11:42:29.870Z,8.00
2023-02-15T11:45:00.925Z,7.75
2023-02-15T11:47:28.952Z,8.50
2023-02-15T11:49:56.843Z,9.75
2023-02-15T11:52:25.415Z,8.00
2023-02-15T11:54:53.539Z,8.50
2023-02-15T11:57:25.695Z,9.00
2023-02-15T11:59:55.124Z,8.00
2023-02-15T12:02:23.852Z,7.25
2023-02-15T12:04:56.626Z,8.00
2023-02-15T12:07:28.335Z,7.50
2023-02-15T12:10:01.511Z,8.25
2023-02-15T12:12:31.932Z,8.50
2023-02-15T12:15:00.401Z,8.00
2023-02-15T12:17:31.987Z,8.25
2023-02-15T12:20:00.271Z,6.00
2023-02-15T12:22:30.483Z,7.75
2023-02-15T12:24:59.512Z,7.50
2023-02-15T12:27:32.247Z,8.00
2023-02-15T12:30:03.277Z,6.50
2023-02-15T12:32:33.549Z,9.00
2023-02-15T12:35:02.903Z,7.25
2023-02-15T12:37:32.981Z,7.00
2023-02-15T12:40:04.567Z,7.25
2023-02-15T12:42:53.224Z,8.00
2023-02-15T12:45:28.703Z,8.50
2023-02-15T12:48:11.667Z,7.25
2023-02-15T12:50:40.925Z,7.75
2023-02-15T12:53:11.241Z,7.50
2023-02-15T12:55:45.690Z,8.00
2023-02-15T12:58:21.586Z,7.50
2023-02-15T13:00:49.749Z,8.25
2023-02-15T13:03:22.575Z,8.00
2023-02-15T13:05:51.686Z,8.00
2023-02-15T13:08:20.950Z,8.00
2023-02-15T13:10:55.716Z,8.00
2023-02-15T13:13:29.053Z,7.25
2023-02-15T13:15:58.495Z,7.00
2023-02-15T13:18:31.607Z,8.00
2023-02-15T13:21:02.072Z,7.00
2023-02-15T13:23:31.408Z,8.00
2023-02-15T13:26:00.881Z,7.00
2023-02-15T13:28:36.630Z,9.25
2023-02-15T13:31:04.985Z,8.00
2023-02-15T13:33:34.659Z,10.00
2023-02-15T13:36:08.712Z,7.25
2023-02-15T13:38:52.940Z,8.00
2023-02-15T13:41:22.424Z,9.25
2023-02-15T13:43:57.275Z,7.00
2023-02-15T13:46:31.632Z,7.00
2023-02-15T13:49:07.428Z,7.00
2023-02-15T13:51:38.006Z,8.00
2023-02-15T13:54:26.110Z,8.00
2023-02-15T13:56:58.915Z,6.75
2023-02-15T13:59:42.329Z,7.00
2023-02-15T14:02:35.234Z,8.00
2023-02-15T14:05:24.056Z,7.00
2023-02-15T14:07:58.803Z,7.75
2023-02-15T14:10:34.909Z,7.75
2023-02-15T14:13:50.451Z,7.25
2023-02-15T14:16:23.240Z,6.25
2023-02-15T14:18:53.364Z,6.00
2023-02-15T14:21:23.926Z,7.00
2023-02-15T14:23:59.535Z,7.00
2023-02-15T14:26:32.900Z,6.00
2023-02-15T14:29:04.851Z,6.50
2023-02-15T14:31:36.453Z,8.50
2023-02-15T14:34:05.359Z,8.00
2023-02-15T14:36:33.445Z,7.00
2023-02-15T14:39:31.296Z,7.50
2023-02-15T14:41:59.789Z,8.75
2023-02-15T14:44:31.193Z,6.25
2023-02-15T14:47:02.312Z,7.00
2023-02-15T14:49:32.953Z,7.25
2023-02-15T14:52:08.059Z,9.75
2023-02-15T14:55:00.961Z,8.00
2023-02-15T14:57:37.735Z,6.00
2023-02-15T15:00:41.506Z,9.00
2023-02-15T15:03:23.716Z,7.00
2023-02-15T15:05:53.433Z,7.25
2023-02-15T15:08:27.738Z,7.00
2023-02-15T15:10:56.614Z,7.00
2023-02-15T15:13:43.269Z,8.00
2023-02-15T15:16:51.742Z,8.50
2023-02-15T15:20:08.396Z,7.50
2023-02-15T15:22:38.387Z,7.00
2023-02-15T15:25:10.612Z,8.50
2023-02-15T15:27:46.495Z,9.00
2023-02-15T15:31:04.376Z,8.75
2023-02-15T15:34:04.317Z,7.00
2023-02-15T15:37:08.608Z,7.25
2023-02-15T15:40:15.235Z,7.00
2023-02-15T15:42:50.496Z,7.00
2023-02-15T15:45:54.671Z,6.75
2023-02-15T15:48:33.460Z,7.00
2023-02-15T15:51:02.893Z,8.00
2023-02-15T15:53:32.702Z,9.50
2023-02-15T15:56:03.544Z,8.00
2023-02-15T15:58:32.673Z,9.75
2023-02-15T16:01:01.833Z,8.00
2023-02-15T16:03:30.377Z,7.00
2023-02-15T16:06:01.412Z,9.00
2023-02-15T16:08:31.268Z,6.75
2023-02-15T16:10:59.214Z,7.00
2023-02-15T16:13:28.805Z,6.75
2023-02-15T16:15:57.390Z,9.25
2023-02-15T16:18:28.591Z,7.00
2023-02-15T16:20:57.362Z,7.25
2023-02-15T16:23:52.636Z,8.00
2023-02-15T16:26:25.300Z,7.50
2023-02-15T16:28:55.257Z,8.00
2023-02-15T16:31:24.404Z,7.25
2023-02-15T16:33:55.072Z,8.25
2023-02-15T16:36:23.999Z,9.00
2023-02-15T16:39:11.950Z,8.75
2023-02-15T16:41:40.314Z,8.00
2023-02-15T16:44:14.174Z,8.00
2023-02-15T16:46:42.764Z,8.50
2023-02-15T16:49:17.296Z,8.00
2023-02-15T16:51:45.762Z,8.00
2023-02-15T16:54:17.708Z,9.00
2023-02-15T16:56:47.322Z,9.50
2023-02-15T16:59:22.461Z,8.75
2023-02-15T17:01:50.394Z,8.50
2023-02-15T17:04:28.729Z,9.25
2023-02-15T17:07:05.930Z,9.25
2023-02-15T17:09:34.126Z,9.75
2023-02-15T17:12:03.213Z,9.00
2023-02-15T17:14:33.412Z,10.00
2023-02-15T17:17:03.378Z,10.00
2023-02-15T17:19:32.727Z,7.25
2023-02-15T17:22:02.284Z,9.25
2023-02-15T17:24:39.485Z,11.00
2023-02-15T17:27:12.946Z,10.00
2023-02-15T17:29:42.873Z,9.75
2023-02-15T17:32:17.414Z,11.00
2023-02-15T17:35:09.208Z,9.75
2023-02-15T17:37:47.567Z,11.00
2023-02-15T17:40:24.457Z,9.25
2023-02-15T17:42:52.452Z,9.50
2023-02-15T17:45:22.139Z,10.00
2023-02-15T17:47:50.529Z,10.00
2023-02-15T17:50:22.097Z,11.00
2023-02-15T17:52:50.349Z,10.00
2023-02-15T17:55:39.172Z,10.25
2023-02-15T17:58:08.599Z,11.00
2023-02-15T18:00:57.773Z,9.25
2023-02-15T18:03:43.611Z,11.25
2023-02-15T18:06:29.438Z,11.25
2023-02-15T18:09:15.080Z,11.25
2023-02-15T18:11:48.616Z,10.00
2023-02-15T18:14:16.517Z,12.25
2023-02-15T18:16:46.246Z,12.00
2023-02-15T18:19:18.830Z,12.00
2023-02-15T18:21:47.200Z,10.50
2023-02-15T18:24:19.150Z,10.50
2023-02-15T18:26:47.056Z,10.75
2023-02-15T18:29:15.040Z,10.75
2023-02-15T18:31:43.002Z,11.50
2023-02-15T18:34:20.250Z,11.00
2023-02-15T18:36:48.204Z,15.00
2023-02-15T18:39:27.051Z,14.50
2023-02-15T18:41:55.007Z,14.75
2023-02-15T18:44:22.925Z,14.00
2023-02-15T18:46:50.940Z,15.75
2023-02-15T18:49:20.412Z,15.25
2023-02-15T18:51:48.678Z,14.25
2023-02-15T18:54:20.753Z,14.00
2023-02-15T18:56:53.337Z,16.25
2023-02-15T18:59:22.076Z,16.25
2023-02-15T19:01:49.977Z,16.25
2023-02-15T19:04:18.356Z,16.00
2023-02-15T19:06:48.840Z,15.00
2023-02-15T19:09:18.243Z,15.00
2023-02-15T19:11:49.166Z,17.75
2023-02-15T19:14:24.359Z,14.25
2023-02-15T19:16:52.577Z,15.00
2023-02-15T19:19:20.596Z,16.75
2023-02-15T19:21:50.170Z,14.25
2023-02-15T19:24:19.767Z,14.25
2023-02-15T19:26:47.706Z,16.00
2023-02-15T19:29:16.852Z,15.25
2023-02-15T19:31:44.827Z,16.00
2023-02-15T19:34:14.752Z,14.75
2023-02-15T19:36:42.813Z,14.50
2023-02-15T19:39:21.584Z,14.50
2023-02-15T19:41:49.492Z,18.00
2023-02-15T19:44:17.718Z,15.00
2023-02-15T19:46:45.879Z,16.00
2023-02-15T19:49:13.807Z,18.25
2023-02-15T19:51:42.034Z,17.25
2023-02-15T19:54:22.537Z,20.00
2023-02-15T19:56:50.414Z,18.50
2023-02-15T19:59:23.661Z,18.00
2023-02-15T20:01:52.041Z,17.75
2023-02-15T20:04:20.054Z,17.00
2023-02-15T20:06:48.384Z,18.00
2023-02-15T20:09:20.198Z,20.50
2023-02-15T20:11:49.855Z,18.75
2023-02-15T20:14:17.702Z,22.25
2023-02-15T20:16:45.578Z,19.75
2023-02-15T20:19:14.159Z,21.50
2023-02-15T20:21:42.409Z,22.25
2023-02-15T20:24:13.235Z,18.25
2023-02-15T20:26:41.159Z,21.25
2023-02-15T20:29:13.386Z,23.00
2023-02-15T20:31:41.633Z,21.50
2023-02-15T20:34:09.593Z,19.00
2023-02-15T20:36:37.475Z,20.25
2023-02-15T20:39:09.573Z,20.00
2023-02-15T20:41:40.014Z,20.00
2023-02-15T20:44:18.811Z,18.00
2023-02-15T20:46:46.784Z,18.00
2023-02-15T20:49:14.814Z,20.50
2023-02-15T20:51:44.704Z,19.25
2023-02-15T20:54:14.694Z,19.00
2023-02-15T20:56:43.313Z,18.25
2023-02-15T20:59:26.498Z,18.50
2023-02-15T21:01:57.030Z,18.50
2023-02-15T21:04:27.699Z,18.25
2023-02-15T21:06:55.634Z,22.00
2023-02-15T21:09:23.525Z,21.00
2023-02-15T21:11:52.066Z,18.50
2023-02-15T21:14:20.691Z,18.00
2023-02-15T21:16:50.221Z,20.75
2023-02-15T21:19:18.967Z,22.25
2023-02-15T21:21:48.589Z,19.75
2023-02-15T21:24:16.965Z,19.75
2023-02-15T21:26:46.203Z,22.25
2023-02-15T21:29:18.191Z,21.75
2023-02-15T21:31:46.518Z,18.50
2023-02-15T21:34:15.967Z,19.75
2023-02-15T21:36:43.856Z,19.75
2023-02-15T21:39:18.735Z,19.00
2023-02-15T21:42:04.547Z,19.50
2023-02-15T21:44:50.205Z,19.75
2023-02-15T21:47:39.367Z,20.00
2023-02-15T21:50:27.809Z,18.00
2023-02-15T21:52:55.748Z,17.50
2023-02-15T21:55:26.381Z,20.25
2023-02-15T21:57:54.309Z,18.50
2023-02-15T22:00:23.324Z,18.25
2023-02-15T22:02:53.818Z,18.00
2023-02-15T22:05:24.497Z,19.25
2023-02-15T22:07:52.459Z,17.00
2023-02-15T22:10:22.704Z,16.75
2023-02-15T22:12:51.121Z,18.50
2023-02-15T22:15:20.401Z,19.00
2023-02-15T22:17:48.440Z,19.00
2023-02-15T22:20:17.521Z,18.00
2023-02-15T22:22:50.196Z,18.75
2023-02-15T22:25:19.389Z,19.75
2023-02-15T22:27:47.500Z,18.00
2023-02-15T22:30:21.483Z,18.00
2023-02-15T22:32:49.867Z,15.00
2023-02-15T22:35:18.423Z,18.00
2023-02-15T22:37:47.793Z,17.75
2023-02-15T22:40:16.794Z,19.25
2023-02-15T22:42:46.439Z,19.50
2023-02-15T22:45:17.539Z,21.25
2023-02-15T22:47:45.472Z,20.25
2023-02-15T22:50:20.135Z,20.50
2023-02-15T22:52:49.450Z,22.00
2023-02-15T22:55:17.568Z,20.50
2023-02-15T22:57:45.880Z,20.75
2023-02-15T23:00:16.960Z,20.50
2023-02-15T23:02:45.161Z,20.25
2023-02-15T23:05:23.427Z,19.25
2023-02-15T23:07:52.743Z,22.00
2023-02-15T23:10:24.724Z,21.50
2023-02-15T23:13:11.769Z,19.25
2023-02-15T23:15:39.820Z,19.00
2023-02-15T23:18:18.406Z,22.00
2023-02-15T23:20:46.750Z,18.75
2023-02-15T23:23:16.365Z,21.75
2023-02-15T23:25:44.256Z,19.25
2023-02-15T23:28:23.479Z,20.25
2023-02-15T23:30:51.497Z,18.75
2023-02-15T23:33:23.604Z,18.25
2023-02-15T23:35:51.581Z,21.25
2023-02-15T23:38:25.831Z,17.50
2023-02-15T23:41:16.063Z,18.50
2023-02-15T23:43:46.663Z,17.75
2023-02-15T23:46:34.969Z,18.00
2023-02-15T23:49:15.213Z,17.25
2023-02-15T23:51:44.296Z,18.75
2023-02-15T23:54:13.609Z,17.75
2023-02-15T23:56:41.697Z,18.50
2023-02-15T23:59:09.693Z,20.00
